sensor_id;sensor_type;location;lat;lon;timestamp;temperature;humidity
54429;DHT22;40337;52.978;6.310;2023-12-22T00:01:49;6.70;99.90
54429;DHT22;40337;52.978;6.310;2023-12-22T00:04:15;6.70;99.90
54429;DHT22;40337;52.978;6.310;2023-12-22T00:06:40;6.70;99.90
54429;DHT22;40337;52.978;6.310;2023-12-22T00:12:10;6.70;99.90
54429;DHT22;40337;52.978;6.310;2023-12-22T00:14:36;6.60;99.90
54429;DHT22;40337;52.978;6.310;2023-12-22T00:17:03;6.50;99.90
54429;DHT22;40337;52.978;6.310;2023-12-22T00:19:29;6.50;99.90
54429;DHT22;40337;52.978;6.310;2023-12-22T00:21:54;6.50;99.90
54429;DHT22;40337;52.978;6.310;2023-12-22T00:24:20;6.50;99.90
54429;DHT22;40337;52.978;6.310;2023-12-22T00:26:45;6.60;99.90
54429;DHT22;40337;52.978;6.310;2023-12-22T00:29:11;6.60;99.90
54429;DHT22;40337;52.978;6.310;2023-12-22T00:31:37;6.60;99.90
54429;DHT22;40337;52.978;6.310;2023-12-22T00:34:02;6.60;99.90
54429;DHT22;40337;52.978;6.310;2023-12-22T00:36:28;6.50;99.90
54429;DHT22;40337;52.978;6.310;2023-12-22T00:38:53;6.50;99.90
54429;DHT22;40337;52.978;6.310;2023-12-22T00:41:19;6.50;99.90
54429;DHT22;40337;52.978;6.310;2023-12-22T00:43:44;6.50;99.90
54429;DHT22;40337;52.978;6.310;2023-12-22T00:46:10;6.40;99.90
54429;DHT22;40337;52.978;6.310;2023-12-22T00:48:36;6.40;99.90
54429;DHT22;40337;52.978;6.310;2023-12-22T00:51:01;6.40;99.90
54429;DHT22;40337;52.978;6.310;2023-12-22T00:53:27;6.50;99.90
54429;DHT22;40337;52.978;6.310;2023-12-22T00:55:53;6.60;99.90
54429;DHT22;40337;52.978;6.310;2023-12-22T00:58:18;6.50;99.90
54429;DHT22;40337;52.978;6.310;2023-12-22T01:00:44;6.60;99.90
54429;DHT22;40337;52.978;6.310;2023-12-22T01:03:09;6.60;99.90
54429;DHT22;40337;52.978;6.310;2023-12-22T01:05:37;6.60;99.90
54429;DHT22;40337;52.978;6.310;2023-12-22T01:08:03;6.60;99.90
54429;DHT22;40337;52.978;6.310;2023-12-22T01:10:28;6.60;99.90
54429;DHT22;40337;52.978;6.310;2023-12-22T01:12:54;6.60;99.90
54429;DHT22;40337;52.978;6.310;2023-12-22T01:15:19;6.50;99.90
54429;DHT22;40337;52.978;6.310;2023-12-22T01:17:45;6.60;99.90
54429;DHT22;40337;52.978;6.310;2023-12-22T01:20:11;6.60;99.90
54429;DHT22;40337;52.978;6.310;2023-12-22T01:22:37;6.60;99.90
54429;DHT22;40337;52.978;6.310;2023-12-22T01:25:04;6.70;99.90
54429;DHT22;40337;52.978;6.310;2023-12-22T01:27:31;6.60;99.90
54429;DHT22;40337;52.978;6.310;2023-12-22T01:29:56;6.60;99.90
54429;DHT22;40337;52.978;6.310;2023-12-22T01:32:22;6.50;99.90
54429;DHT22;40337;52.978;6.310;2023-12-22T01:34:48;6.50;99.90
54429;DHT22;40337;52.978;6.310;2023-12-22T01:37:13;6.40;99.90
54429;DHT22;40337;52.978;6.310;2023-12-22T01:39:39;6.40;99.90
54429;DHT22;40337;52.978;6.310;2023-12-22T01:42:05;6.40;99.90
54429;DHT22;40337;52.978;6.310;2023-12-22T01:44:31;6.40;99.90
54429;DHT22;40337;52.978;6.310;2023-12-22T01:46:56;6.50;99.90
54429;DHT22;40337;52.978;6.310;2023-12-22T01:49:23;6.60;99.90
54429;DHT22;40337;52.978;6.310;2023-12-22T01:51:49;6.60;99.90
54429;DHT22;40337;52.978;6.310;2023-12-22T01:54:15;6.60;99.90
54429;DHT22;40337;52.978;6.310;2023-12-22T01:56:42;6.60;99.90
54429;DHT22;40337;52.978;6.310;2023-12-22T01:59:08;6.50;99.90
54429;DHT22;40337;52.978;6.310;2023-12-22T02:01:35;6.50;99.90
54429;DHT22;40337;52.978;6.310;2023-12-22T02:04:01;6.60;99.90
54429;DHT22;40337;52.978;6.310;2023-12-22T02:06:30;6.50;99.90
54429;DHT22;40337;52.978;6.310;2023-12-22T02:08:57;6.50;99.90
54429;DHT22;40337;52.978;6.310;2023-12-22T02:11:23;6.60;99.90
54429;DHT22;40337;52.978;6.310;2023-12-22T02:13:49;6.60;99.90
54429;DHT22;40337;52.978;6.310;2023-12-22T02:16:32;6.60;99.90
54429;DHT22;40337;52.978;6.310;2023-12-22T02:19:09;6.60;99.90
54429;DHT22;40337;52.978;6.310;2023-12-22T02:22:07;6.70;99.90
54429;DHT22;40337;52.978;6.310;2023-12-22T02:24:34;6.70;99.90
54429;DHT22;40337;52.978;6.310;2023-12-22T02:27:04;6.70;99.90
54429;DHT22;40337;52.978;6.310;2023-12-22T02:29:33;6.70;99.90
54429;DHT22;40337;52.978;6.310;2023-12-22T02:32:04;6.70;99.90
54429;DHT22;40337;52.978;6.310;2023-12-22T02:34:34;6.70;99.90
54429;DHT22;40337;52.978;6.310;2023-12-22T02:37:02;6.70;99.90
54429;DHT22;40337;52.978;6.310;2023-12-22T02:39:29;6.70;99.90
54429;DHT22;40337;52.978;6.310;2023-12-22T02:41:55;6.70;99.90
54429;DHT22;40337;52.978;6.310;2023-12-22T02:44:21;6.60;99.90
54429;DHT22;40337;52.978;6.310;2023-12-22T02:46:46;6.70;99.90
54429;DHT22;40337;52.978;6.310;2023-12-22T02:49:12;6.80;99.90
54429;DHT22;40337;52.978;6.310;2023-12-22T02:51:38;6.80;99.90
54429;DHT22;40337;52.978;6.310;2023-12-22T02:54:04;6.80;99.90
54429;DHT22;40337;52.978;6.310;2023-12-22T02:56:33;6.70;99.90
54429;DHT22;40337;52.978;6.310;2023-12-22T02:58:58;6.70;99.90
54429;DHT22;40337;52.978;6.310;2023-12-22T03:01:24;6.60;99.90
54429;DHT22;40337;52.978;6.310;2023-12-22T03:03:49;6.60;99.90
54429;DHT22;40337;52.978;6.310;2023-12-22T03:06:15;6.60;99.90
54429;DHT22;40337;52.978;6.310;2023-12-22T03:08:40;6.50;99.90
54429;DHT22;40337;52.978;6.310;2023-12-22T03:11:06;6.40;99.90
54429;DHT22;40337;52.978;6.310;2023-12-22T03:13:32;6.40;99.90
54429;DHT22;40337;52.978;6.310;2023-12-22T03:15:57;6.30;99.90
54429;DHT22;40337;52.978;6.310;2023-12-22T03:18:23;6.30;99.90
54429;DHT22;40337;52.978;6.310;2023-12-22T03:20:48;6.20;99.90
54429;DHT22;40337;52.978;6.310;2023-12-22T03:23:14;6.20;99.90
54429;DHT22;40337;52.978;6.310;2023-12-22T03:25:40;6.20;99.90
54429;DHT22;40337;52.978;6.310;2023-12-22T03:28:05;6.10;99.90
54429;DHT22;40337;52.978;6.310;2023-12-22T03:30:31;6.10;99.90
54429;DHT22;40337;52.978;6.310;2023-12-22T03:32:56;6.10;99.90
54429;DHT22;40337;52.978;6.310;2023-12-22T03:35:22;6.10;99.90
54429;DHT22;40337;52.978;6.310;2023-12-22T03:37:48;6.10;99.90
54429;DHT22;40337;52.978;6.310;2023-12-22T03:40:13;6.10;99.90
54429;DHT22;40337;52.978;6.310;2023-12-22T03:42:39;6.00;99.90
54429;DHT22;40337;52.978;6.310;2023-12-22T03:45:05;6.10;99.90
54429;DHT22;40337;52.978;6.310;2023-12-22T03:47:31;6.10;99.90
54429;DHT22;40337;52.978;6.310;2023-12-22T03:49:57;6.10;99.90
54429;DHT22;40337;52.978;6.310;2023-12-22T03:52:23;6.10;99.90
54429;DHT22;40337;52.978;6.310;2023-12-22T03:54:48;6.20;99.90
54429;DHT22;40337;52.978;6.310;2023-12-22T03:57:14;6.10;99.90
54429;DHT22;40337;52.978;6.310;2023-12-22T03:59:39;6.10;99.90
54429;DHT22;40337;52.978;6.310;2023-12-22T04:02:05;6.20;99.90
54429;DHT22;40337;52.978;6.310;2023-12-22T04:04:31;6.30;99.90
54429;DHT22;40337;52.978;6.310;2023-12-22T04:06:57;6.40;99.90
54429;DHT22;40337;52.978;6.310;2023-12-22T04:09:22;6.40;99.90
54429;DHT22;40337;52.978;6.310;2023-12-22T04:11:48;6.50;99.90
54429;DHT22;40337;52.978;6.310;2023-12-22T04:14:13;6.50;99.90
54429;DHT22;40337;52.978;6.310;2023-12-22T04:16:40;6.50;99.90
54429;DHT22;40337;52.978;6.310;2023-12-22T04:19:06;6.50;99.90
54429;DHT22;40337;52.978;6.310;2023-12-22T04:21:31;6.60;99.90
54429;DHT22;40337;52.978;6.310;2023-12-22T04:23:57;6.50;99.90
54429;DHT22;40337;52.978;6.310;2023-12-22T04:26:23;6.60;99.90
54429;DHT22;40337;52.978;6.310;2023-12-22T04:28:48;6.70;99.90
54429;DHT22;40337;52.978;6.310;2023-12-22T04:31:14;6.60;99.90
54429;DHT22;40337;52.978;6.310;2023-12-22T04:33:39;6.60;99.90
54429;DHT22;40337;52.978;6.310;2023-12-22T04:36:05;6.70;99.90
54429;DHT22;40337;52.978;6.310;2023-12-22T04:38:32;6.70;99.90
54429;DHT22;40337;52.978;6.310;2023-12-22T04:40:57;6.70;99.90
54429;DHT22;40337;52.978;6.310;2023-12-22T04:43:23;6.70;99.90
54429;DHT22;40337;52.978;6.310;2023-12-22T04:45:49;6.80;99.90
54429;DHT22;40337;52.978;6.310;2023-12-22T04:48:14;6.70;99.90
54429;DHT22;40337;52.978;6.310;2023-12-22T04:50:40;6.80;99.90
54429;DHT22;40337;52.978;6.310;2023-12-22T04:53:06;6.80;99.90
54429;DHT22;40337;52.978;6.310;2023-12-22T04:55:31;6.80;99.90
54429;DHT22;40337;52.978;6.310;2023-12-22T04:57:57;6.80;99.90
54429;DHT22;40337;52.978;6.310;2023-12-22T05:00:23;6.80;99.90
54429;DHT22;40337;52.978;6.310;2023-12-22T05:02:48;6.80;99.90
54429;DHT22;40337;52.978;6.310;2023-12-22T05:05:14;6.70;99.90
54429;DHT22;40337;52.978;6.310;2023-12-22T05:07:39;6.70;99.90
54429;DHT22;40337;52.978;6.310;2023-12-22T05:10:06;6.70;99.90
54429;DHT22;40337;52.978;6.310;2023-12-22T05:12:32;6.80;99.90
54429;DHT22;40337;52.978;6.310;2023-12-22T05:14:57;6.80;99.90
54429;DHT22;40337;52.978;6.310;2023-12-22T05:17:23;6.80;99.90
54429;DHT22;40337;52.978;6.310;2023-12-22T05:19:48;6.80;99.90
54429;DHT22;40337;52.978;6.310;2023-12-22T05:22:14;6.80;99.90
54429;DHT22;40337;52.978;6.310;2023-12-22T05:24:40;6.90;99.90
54429;DHT22;40337;52.978;6.310;2023-12-22T05:27:05;6.90;99.90
54429;DHT22;40337;52.978;6.310;2023-12-22T05:29:31;6.90;99.90
54429;DHT22;40337;52.978;6.310;2023-12-22T05:31:57;6.90;99.90
54429;DHT22;40337;52.978;6.310;2023-12-22T05:34:22;6.90;99.90
54429;DHT22;40337;52.978;6.310;2023-12-22T05:36:48;6.90;99.90
54429;DHT22;40337;52.978;6.310;2023-12-22T05:39:13;7.00;99.90
54429;DHT22;40337;52.978;6.310;2023-12-22T05:41:39;7.00;99.90
54429;DHT22;40337;52.978;6.310;2023-12-22T05:44:05;7.00;99.90
54429;DHT22;40337;52.978;6.310;2023-12-22T05:46:37;7.00;99.90
54429;DHT22;40337;52.978;6.310;2023-12-22T05:49:06;7.00;99.90
54429;DHT22;40337;52.978;6.310;2023-12-22T05:51:38;6.90;99.90
54429;DHT22;40337;52.978;6.310;2023-12-22T05:54:06;7.00;99.90
54429;DHT22;40337;52.978;6.310;2023-12-22T05:56:32;7.00;99.90
54429;DHT22;40337;52.978;6.310;2023-12-22T05:58:59;7.00;99.90
54429;DHT22;40337;52.978;6.310;2023-12-22T06:01:25;7.00;99.90
54429;DHT22;40337;52.978;6.310;2023-12-22T06:03:50;7.00;99.90
54429;DHT22;40337;52.978;6.310;2023-12-22T06:06:16;7.10;99.90
54429;DHT22;40337;52.978;6.310;2023-12-22T06:08:41;7.10;99.90
54429;DHT22;40337;52.978;6.310;2023-12-22T06:11:07;7.10;99.90
54429;DHT22;40337;52.978;6.310;2023-12-22T06:13:33;7.10;99.90
54429;DHT22;40337;52.978;6.310;2023-12-22T06:15:59;7.10;99.90
54429;DHT22;40337;52.978;6.310;2023-12-22T06:18:24;7.10;99.90
54429;DHT22;40337;52.978;6.310;2023-12-22T06:20:50;7.10;99.90
54429;DHT22;40337;52.978;6.310;2023-12-22T06:23:16;7.20;99.90
54429;DHT22;40337;52.978;6.310;2023-12-22T06:25:42;7.10;99.90
54429;DHT22;40337;52.978;6.310;2023-12-22T06:28:07;7.10;99.90
54429;DHT22;40337;52.978;6.310;2023-12-22T06:30:33;7.10;99.90
54429;DHT22;40337;52.978;6.310;2023-12-22T06:32:59;7.10;99.90
54429;DHT22;40337;52.978;6.310;2023-12-22T06:35:43;7.10;99.90
54429;DHT22;40337;52.978;6.310;2023-12-22T06:38:10;7.00;99.90
54429;DHT22;40337;52.978;6.310;2023-12-22T06:40:37;7.10;99.90
54429;DHT22;40337;52.978;6.310;2023-12-22T06:43:03;7.10;99.90
54429;DHT22;40337;52.978;6.310;2023-12-22T06:45:30;7.00;99.90
54429;DHT22;40337;52.978;6.310;2023-12-22T06:47:55;7.10;99.90
54429;DHT22;40337;52.978;6.310;2023-12-22T06:50:21;7.10;99.90
54429;DHT22;40337;52.978;6.310;2023-12-22T06:52:46;7.00;99.90
54429;DHT22;40337;52.978;6.310;2023-12-22T06:55:12;7.10;99.90
54429;DHT22;40337;52.978;6.310;2023-12-22T06:57:38;7.00;99.90
54429;DHT22;40337;52.978;6.310;2023-12-22T07:00:04;7.00;99.90
54429;DHT22;40337;52.978;6.310;2023-12-22T07:02:30;7.00;99.90
54429;DHT22;40337;52.978;6.310;2023-12-22T07:07:50;7.00;99.90
54429;DHT22;40337;52.978;6.310;2023-12-22T07:10:16;7.00;99.90
54429;DHT22;40337;52.978;6.310;2023-12-22T07:12:42;7.00;99.90
54429;DHT22;40337;52.978;6.310;2023-12-22T07:15:08;7.00;99.90
54429;DHT22;40337;52.978;6.310;2023-12-22T07:17:34;7.00;99.90
54429;DHT22;40337;52.978;6.310;2023-12-22T07:19:59;7.00;99.90
54429;DHT22;40337;52.978;6.310;2023-12-22T07:22:28;7.00;99.90
54429;DHT22;40337;52.978;6.310;2023-12-22T07:24:54;7.00;99.90
54429;DHT22;40337;52.978;6.310;2023-12-22T07:27:21;7.10;99.90
54429;DHT22;40337;52.978;6.310;2023-12-22T07:29:46;7.00;99.90
54429;DHT22;40337;52.978;6.310;2023-12-22T07:32:12;7.00;99.90
54429;DHT22;40337;52.978;6.310;2023-12-22T07:34:38;7.00;99.90
54429;DHT22;40337;52.978;6.310;2023-12-22T07:37:03;7.10;99.90
54429;DHT22;40337;52.978;6.310;2023-12-22T07:39:30;7.10;99.90
54429;DHT22;40337;52.978;6.310;2023-12-22T07:41:56;7.10;99.90
54429;DHT22;40337;52.978;6.310;2023-12-22T07:44:21;7.10;99.90
54429;DHT22;40337;52.978;6.310;2023-12-22T07:46:59;7.10;99.90
54429;DHT22;40337;52.978;6.310;2023-12-22T07:49:25;7.10;99.90
54429;DHT22;40337;52.978;6.310;2023-12-22T07:51:52;7.10;99.90
54429;DHT22;40337;52.978;6.310;2023-12-22T07:54:17;7.10;99.90
54429;DHT22;40337;52.978;6.310;2023-12-22T07:56:43;7.10;99.90
54429;DHT22;40337;52.978;6.310;2023-12-22T07:59:09;7.10;99.90
54429;DHT22;40337;52.978;6.310;2023-12-22T08:01:35;7.10;99.90
54429;DHT22;40337;52.978;6.310;2023-12-22T08:04:00;7.10;99.90
54429;DHT22;40337;52.978;6.310;2023-12-22T08:06:26;7.20;99.90
54429;DHT22;40337;52.978;6.310;2023-12-22T08:08:51;7.20;99.90
54429;DHT22;40337;52.978;6.310;2023-12-22T08:11:18;7.10;99.90
54429;DHT22;40337;52.978;6.310;2023-12-22T08:13:45;7.30;99.90
54429;DHT22;40337;52.978;6.310;2023-12-22T08:16:10;7.30;99.90
54429;DHT22;40337;52.978;6.310;2023-12-22T08:18:36;7.30;99.90
54429;DHT22;40337;52.978;6.310;2023-12-22T08:21:02;7.30;99.90
54429;DHT22;40337;52.978;6.310;2023-12-22T08:23:27;7.40;99.90
54429;DHT22;40337;52.978;6.310;2023-12-22T08:25:53;7.40;99.90
54429;DHT22;40337;52.978;6.310;2023-12-22T08:28:18;7.30;99.90
54429;DHT22;40337;52.978;6.310;2023-12-22T08:30:44;7.40;99.90
54429;DHT22;40337;52.978;6.310;2023-12-22T08:33:10;7.40;99.90
54429;DHT22;40337;52.978;6.310;2023-12-22T08:35:35;7.40;99.90
54429;DHT22;40337;52.978;6.310;2023-12-22T08:38:01;7.30;99.90
54429;DHT22;40337;52.978;6.310;2023-12-22T08:40:27;7.30;99.90
54429;DHT22;40337;52.978;6.310;2023-12-22T08:42:53;7.30;99.90
54429;DHT22;40337;52.978;6.310;2023-12-22T08:45:26;7.20;99.90
54429;DHT22;40337;52.978;6.310;2023-12-22T08:47:57;7.20;99.90
54429;DHT22;40337;52.978;6.310;2023-12-22T08:50:23;7.20;99.90
54429;DHT22;40337;52.978;6.310;2023-12-22T08:52:48;7.10;99.90
54429;DHT22;40337;52.978;6.310;2023-12-22T08:55:14;7.10;99.90
54429;DHT22;40337;52.978;6.310;2023-12-22T08:57:40;7.10;99.90
54429;DHT22;40337;52.978;6.310;2023-12-22T09:00:06;7.10;99.90
54429;DHT22;40337;52.978;6.310;2023-12-22T09:02:31;7.10;99.90
54429;DHT22;40337;52.978;6.310;2023-12-22T09:04:57;7.10;99.90
54429;DHT22;40337;52.978;6.310;2023-12-22T09:07:23;7.20;99.90
54429;DHT22;40337;52.978;6.310;2023-12-22T09:09:50;7.20;99.90
54429;DHT22;40337;52.978;6.310;2023-12-22T09:12:15;7.30;99.90
54429;DHT22;40337;52.978;6.310;2023-12-22T09:14:41;7.30;99.90
54429;DHT22;40337;52.978;6.310;2023-12-22T09:17:07;7.30;99.90
54429;DHT22;40337;52.978;6.310;2023-12-22T09:19:33;7.30;99.90
54429;DHT22;40337;52.978;6.310;2023-12-22T09:22:04;7.30;99.90
54429;DHT22;40337;52.978;6.310;2023-12-22T09:24:29;7.30;99.90
54429;DHT22;40337;52.978;6.310;2023-12-22T09:26:55;7.30;99.90
54429;DHT22;40337;52.978;6.310;2023-12-22T09:29:29;7.30;99.90
54429;DHT22;40337;52.978;6.310;2023-12-22T09:31:55;7.30;99.90
54429;DHT22;40337;52.978;6.310;2023-12-22T09:34:20;7.30;99.90
54429;DHT22;40337;52.978;6.310;2023-12-22T09:36:46;7.40;99.90
54429;DHT22;40337;52.978;6.310;2023-12-22T09:39:11;7.30;99.90
54429;DHT22;40337;52.978;6.310;2023-12-22T09:41:44;7.30;99.90
54429;DHT22;40337;52.978;6.310;2023-12-22T09:44:13;7.30;99.90
54429;DHT22;40337;52.978;6.310;2023-12-22T09:46:40;7.30;99.90
54429;DHT22;40337;52.978;6.310;2023-12-22T09:49:07;7.30;99.90
54429;DHT22;40337;52.978;6.310;2023-12-22T09:51:33;7.30;99.90
54429;DHT22;40337;52.978;6.310;2023-12-22T09:54:00;7.30;99.90
54429;DHT22;40337;52.978;6.310;2023-12-22T09:56:27;7.40;99.90
54429;DHT22;40337;52.978;6.310;2023-12-22T09:58:55;7.20;99.90
54429;DHT22;40337;52.978;6.310;2023-12-22T10:01:21;7.40;99.90
54429;DHT22;40337;52.978;6.310;2023-12-22T10:03:48;7.30;99.90
54429;DHT22;40337;52.978;6.310;2023-12-22T10:06:14;7.40;99.90
54429;DHT22;40337;52.978;6.310;2023-12-22T10:08:43;7.50;99.90
54429;DHT22;40337;52.978;6.310;2023-12-22T10:11:09;7.50;99.90
54429;DHT22;40337;52.978;6.310;2023-12-22T10:13:36;7.50;99.90
54429;DHT22;40337;52.978;6.310;2023-12-22T10:16:05;7.50;99.90
54429;DHT22;40337;52.978;6.310;2023-12-22T10:18:32;7.60;99.90
54429;DHT22;40337;52.978;6.310;2023-12-22T10:20:58;7.60;99.90
54429;DHT22;40337;52.978;6.310;2023-12-22T10:23:25;7.50;99.90
54429;DHT22;40337;52.978;6.310;2023-12-22T10:25:50;7.40;99.90
54429;DHT22;40337;52.978;6.310;2023-12-22T10:28:16;7.50;99.90
54429;DHT22;40337;52.978;6.310;2023-12-22T10:30:44;7.50;99.90
54429;DHT22;40337;52.978;6.310;2023-12-22T10:33:11;7.60;99.90
54429;DHT22;40337;52.978;6.310;2023-12-22T10:35:37;7.60;99.90
54429;DHT22;40337;52.978;6.310;2023-12-22T10:38:04;7.60;99.90
54429;DHT22;40337;52.978;6.310;2023-12-22T10:40:29;7.60;99.90
54429;DHT22;40337;52.978;6.310;2023-12-22T10:42:55;7.60;99.90
54429;DHT22;40337;52.978;6.310;2023-12-22T10:45:21;7.60;99.90
54429;DHT22;40337;52.978;6.310;2023-12-22T10:47:49;7.60;99.90
54429;DHT22;40337;52.978;6.310;2023-12-22T10:50:19;7.60;99.90
54429;DHT22;40337;52.978;6.310;2023-12-22T10:52:51;7.60;99.90
54429;DHT22;40337;52.978;6.310;2023-12-22T10:55:17;7.60;99.90
54429;DHT22;40337;52.978;6.310;2023-12-22T10:57:45;7.60;99.90
54429;DHT22;40337;52.978;6.310;2023-12-22T11:00:12;7.60;99.90
54429;DHT22;40337;52.978;6.310;2023-12-22T11:02:42;7.60;99.90
54429;DHT22;40337;52.978;6.310;2023-12-22T11:05:10;7.70;99.90
54429;DHT22;40337;52.978;6.310;2023-12-22T11:07:37;7.70;99.90
54429;DHT22;40337;52.978;6.310;2023-12-22T11:10:05;7.70;99.90
54429;DHT22;40337;52.978;6.310;2023-12-22T11:12:34;7.70;99.90
54429;DHT22;40337;52.978;6.310;2023-12-22T11:15:01;7.80;99.90
54429;DHT22;40337;52.978;6.310;2023-12-22T11:17:28;7.80;99.90
54429;DHT22;40337;52.978;6.310;2023-12-22T11:19:56;7.80;99.90
54429;DHT22;40337;52.978;6.310;2023-12-22T11:22:22;7.80;99.90
54429;DHT22;40337;52.978;6.310;2023-12-22T11:24:48;7.80;99.90
54429;DHT22;40337;52.978;6.310;2023-12-22T11:27:20;7.90;99.90
54429;DHT22;40337;52.978;6.310;2023-12-22T11:29:50;7.80;99.90
54429;DHT22;40337;52.978;6.310;2023-12-22T11:32:18;7.90;99.90
54429;DHT22;40337;52.978;6.310;2023-12-22T11:34:45;7.90;99.90
54429;DHT22;40337;52.978;6.310;2023-12-22T11:37:13;7.90;99.90
54429;DHT22;40337;52.978;6.310;2023-12-22T11:39:40;7.90;99.90
54429;DHT22;40337;52.978;6.310;2023-12-22T11:42:08;7.90;99.90
54429;DHT22;40337;52.978;6.310;2023-12-22T11:44:36;7.90;99.90
54429;DHT22;40337;52.978;6.310;2023-12-22T11:47:08;8.00;99.90
54429;DHT22;40337;52.978;6.310;2023-12-22T11:49:36;8.00;99.90
54429;DHT22;40337;52.978;6.310;2023-12-22T11:52:15;7.90;99.90
54429;DHT22;40337;52.978;6.310;2023-12-22T11:54:51;8.00;99.90
54429;DHT22;40337;52.978;6.310;2023-12-22T11:57:30;7.90;99.90
54429;DHT22;40337;52.978;6.310;2023-12-22T12:00:01;7.90;99.90
54429;DHT22;40337;52.978;6.310;2023-12-22T12:02:30;7.90;99.90
54429;DHT22;40337;52.978;6.310;2023-12-22T12:04:57;8.00;99.90
54429;DHT22;40337;52.978;6.310;2023-12-22T12:07:41;8.00;99.90
54429;DHT22;40337;52.978;6.310;2023-12-22T12:13:05;8.00;99.90
54429;DHT22;40337;52.978;6.310;2023-12-22T12:15:33;8.00;99.90
54429;DHT22;40337;52.978;6.310;2023-12-22T12:18:00;8.00;99.90
54429;DHT22;40337;52.978;6.310;2023-12-22T12:20:26;8.00;99.90
54429;DHT22;40337;52.978;6.310;2023-12-22T12:22:53;8.00;99.90
54429;DHT22;40337;52.978;6.310;2023-12-22T12:25:28;8.00;99.90
54429;DHT22;40337;52.978;6.310;2023-12-22T12:28:04;8.00;99.90
54429;DHT22;40337;52.978;6.310;2023-12-22T12:30:31;8.00;99.90
54429;DHT22;40337;52.978;6.310;2023-12-22T12:32:59;8.00;99.90
54429;DHT22;40337;52.978;6.310;2023-12-22T12:35:31;8.00;99.90
54429;DHT22;40337;52.978;6.310;2023-12-22T12:37:57;8.00;99.90
54429;DHT22;40337;52.978;6.310;2023-12-22T12:40:24;8.00;99.90
54429;DHT22;40337;52.978;6.310;2023-12-22T12:42:50;8.10;99.90
54429;DHT22;40337;52.978;6.310;2023-12-22T12:45:24;8.10;99.90
54429;DHT22;40337;52.978;6.310;2023-12-22T12:48:01;8.10;99.90
54429;DHT22;40337;52.978;6.310;2023-12-22T12:50:28;8.10;99.90
54429;DHT22;40337;52.978;6.310;2023-12-22T12:52:57;8.10;99.90
54429;DHT22;40337;52.978;6.310;2023-12-22T12:55:24;8.00;99.90
54429;DHT22;40337;52.978;6.310;2023-12-22T12:57:54;8.10;99.90
54429;DHT22;40337;52.978;6.310;2023-12-22T13:00:35;8.00;99.90
54429;DHT22;40337;52.978;6.310;2023-12-22T13:03:03;8.00;99.90
54429;DHT22;40337;52.978;6.310;2023-12-22T13:05:30;8.00;99.90
54429;DHT22;40337;52.978;6.310;2023-12-22T13:08:09;8.00;99.90
54429;DHT22;40337;52.978;6.310;2023-12-22T13:10:35;8.10;99.90
54429;DHT22;40337;52.978;6.310;2023-12-22T13:13:01;8.00;99.90
54429;DHT22;40337;52.978;6.310;2023-12-22T13:15:26;8.00;99.90
54429;DHT22;40337;52.978;6.310;2023-12-22T13:17:52;8.00;99.90
54429;DHT22;40337;52.978;6.310;2023-12-22T13:20:18;8.10;99.90
54429;DHT22;40337;52.978;6.310;2023-12-22T13:22:44;8.10;99.90
54429;DHT22;40337;52.978;6.310;2023-12-22T13:25:10;8.00;99.90
54429;DHT22;40337;52.978;6.310;2023-12-22T13:27:47;8.00;99.90
54429;DHT22;40337;52.978;6.310;2023-12-22T13:30:14;8.00;99.90
54429;DHT22;40337;52.978;6.310;2023-12-22T13:32:40;8.00;99.90
54429;DHT22;40337;52.978;6.310;2023-12-22T13:35:06;8.00;99.90
54429;DHT22;40337;52.978;6.310;2023-12-22T13:37:32;8.00;99.90
54429;DHT22;40337;52.978;6.310;2023-12-22T13:39:58;8.00;99.90
54429;DHT22;40337;52.978;6.310;2023-12-22T13:42:24;8.00;99.90
54429;DHT22;40337;52.978;6.310;2023-12-22T13:44:50;8.00;99.90
54429;DHT22;40337;52.978;6.310;2023-12-22T13:47:18;8.00;99.90
54429;DHT22;40337;52.978;6.310;2023-12-22T13:49:45;8.00;99.90
54429;DHT22;40337;52.978;6.310;2023-12-22T13:52:27;8.00;99.90
54429;DHT22;40337;52.978;6.310;2023-12-22T13:54:53;8.00;99.90
54429;DHT22;40337;52.978;6.310;2023-12-22T13:57:22;7.90;99.90
54429;DHT22;40337;52.978;6.310;2023-12-22T13:59:48;7.90;99.90
54429;DHT22;40337;52.978;6.310;2023-12-22T14:02:14;7.90;99.90
54429;DHT22;40337;52.978;6.310;2023-12-22T14:04:39;7.90;99.90
54429;DHT22;40337;52.978;6.310;2023-12-22T14:07:05;7.80;99.90
54429;DHT22;40337;52.978;6.310;2023-12-22T14:09:31;7.80;99.90
54429;DHT22;40337;52.978;6.310;2023-12-22T14:11:59;7.80;99.90
54429;DHT22;40337;52.978;6.310;2023-12-22T14:14:25;7.80;99.90
54429;DHT22;40337;52.978;6.310;2023-12-22T14:16:50;7.70;99.90
54429;DHT22;40337;52.978;6.310;2023-12-22T14:19:30;7.70;99.90
54429;DHT22;40337;52.978;6.310;2023-12-22T14:21:56;7.70;99.90
54429;DHT22;40337;52.978;6.310;2023-12-22T14:24:21;7.70;99.90
54429;DHT22;40337;52.978;6.310;2023-12-22T14:26:56;7.70;99.90
54429;DHT22;40337;52.978;6.310;2023-12-22T14:29:22;7.70;99.90
54429;DHT22;40337;52.978;6.310;2023-12-22T14:31:52;7.70;99.90
54429;DHT22;40337;52.978;6.310;2023-12-22T14:34:18;7.60;99.90
54429;DHT22;40337;52.978;6.310;2023-12-22T14:36:44;7.60;99.90
54429;DHT22;40337;52.978;6.310;2023-12-22T14:39:10;7.60;99.90
54429;DHT22;40337;52.978;6.310;2023-12-22T14:41:41;7.60;99.90
54429;DHT22;40337;52.978;6.310;2023-12-22T14:44:08;7.60;99.90
54429;DHT22;40337;52.978;6.310;2023-12-22T14:46:38;7.60;99.90
54429;DHT22;40337;52.978;6.310;2023-12-22T14:49:04;7.50;99.90
54429;DHT22;40337;52.978;6.310;2023-12-22T14:51:37;7.50;99.90
54429;DHT22;40337;52.978;6.310;2023-12-22T14:54:05;7.50;99.90
54429;DHT22;40337;52.978;6.310;2023-12-22T14:56:30;7.50;99.90
54429;DHT22;40337;52.978;6.310;2023-12-22T14:58:56;7.50;99.90
54429;DHT22;40337;52.978;6.310;2023-12-22T15:01:22;7.50;99.90
54429;DHT22;40337;52.978;6.310;2023-12-22T15:03:47;7.50;99.90
54429;DHT22;40337;52.978;6.310;2023-12-22T15:06:13;7.50;99.90
54429;DHT22;40337;52.978;6.310;2023-12-22T15:08:39;7.50;99.90
54429;DHT22;40337;52.978;6.310;2023-12-22T15:11:04;7.50;99.90
54429;DHT22;40337;52.978;6.310;2023-12-22T15:13:31;7.50;99.90
54429;DHT22;40337;52.978;6.310;2023-12-22T15:15:56;7.50;99.90
54429;DHT22;40337;52.978;6.310;2023-12-22T15:18:22;7.50;99.90
54429;DHT22;40337;52.978;6.310;2023-12-22T15:20:47;7.50;99.90
54429;DHT22;40337;52.978;6.310;2023-12-22T15:23:16;7.50;99.90
54429;DHT22;40337;52.978;6.310;2023-12-22T15:25:42;7.50;99.90
54429;DHT22;40337;52.978;6.310;2023-12-22T15:28:08;7.60;99.90
54429;DHT22;40337;52.978;6.310;2023-12-22T15:30:34;7.60;99.90
54429;DHT22;40337;52.978;6.310;2023-12-22T15:33:02;7.60;99.90
54429;DHT22;40337;52.978;6.310;2023-12-22T15:35:28;7.60;99.90
54429;DHT22;40337;52.978;6.310;2023-12-22T15:37:54;7.60;99.90
54429;DHT22;40337;52.978;6.310;2023-12-22T15:40:19;7.70;99.90
54429;DHT22;40337;52.978;6.310;2023-12-22T15:42:45;7.60;99.90
54429;DHT22;40337;52.978;6.310;2023-12-22T15:45:10;7.60;99.90
54429;DHT22;40337;52.978;6.310;2023-12-22T15:47:37;7.60;99.90
54429;DHT22;40337;52.978;6.310;2023-12-22T15:50:03;7.60;99.90
54429;DHT22;40337;52.978;6.310;2023-12-22T15:52:29;7.60;99.90